Time;durP1;ratioP1;P1;durP2;ratioP2;P2;SDS_P1;SDS_P2;PMS_P1;PMS_P2;Temp;Humidity;BMP_temperature;BMP_pressure;BME280_temperature;BME280_humidity;BME280_pressure;Samples;Min_cycle;Max_cycle;Signal;HPM_P1;HPM_P2
2022/09/19 00:01:33;;;;;;;6.70;2.10;;;11.80;99.90;;;;;;5016356;28;20168;-81
2022/09/19 00:04:02;;;;;;;13.35;1.75;;;11.80;99.90;;;;;;5033886;28;20213;-81
2022/09/19 00:06:30;;;;;;;2.50;1.33;;;11.70;99.90;;;;;;5033643;28;20194;-80
2022/09/19 00:08:57;;;;;;;4.82;1.98;;;11.70;99.90;;;;;;5033815;28;20242;-81
2022/09/19 00:11:24;;;;;;;8.10;1.52;;;11.60;99.90;;;;;;5016023;28;20709;-80
2022/09/19 00:13:52;;;;;;;3.63;1.50;;;11.80;99.90;;;;;;5015864;28;20211;-80
2022/09/19 00:16:27;;;;;;;4.15;1.42;;;11.70;99.90;;;;;;5015678;28;20195;-81
2022/09/19 00:18:55;;;;;;;1.60;1.13;;;11.80;99.90;;;;;;5016240;28;20644;-80
2022/09/19 00:21:23;;;;;;;8.50;1.90;;;11.80;99.90;;;;;;5016629;28;20554;-80
2022/09/19 00:26:33;;;;;;;1.70;1.40;;;11.70;99.90;;;;;;5033674;28;20747;-80
2022/09/19 00:28:59;;;;;;;6.85;1.20;;;11.80;99.90;;;;;;5015730;28;20176;-80
2022/09/19 00:31:25;;;;;;;4.88;1.73;;;11.80;99.90;;;;;;5034296;28;20286;-80
2022/09/19 00:33:50;;;;;;;4.35;1.55;;;11.80;99.90;;;;;;5033857;28;20187;-81
2022/09/19 00:36:17;;;;;;;4.53;1.27;;;11.80;99.90;;;;;;5033391;28;20187;-80
2022/09/19 00:38:44;;;;;;;3.00;1.42;;;11.70;99.90;;;;;;5033448;28;20877;-81
2022/09/19 00:41:23;;;;;;;21.10;2.70;;;11.80;99.90;;;;;;5015653;28;20266;-83
2022/09/19 00:43:57;;;;;;;6.97;1.50;;;11.80;99.90;;;;;;5033350;28;20236;-81
2022/09/19 00:46:26;;;;;;;3.53;1.85;;;11.90;99.90;;;;;;5033222;28;20268;-80
2022/09/19 00:49:19;;;;;;;4.85;1.17;;;11.90;99.90;;;;;;5033482;28;20218;-80
2022/09/19 00:51:53;;;;;;;4.60;1.45;;;11.90;99.90;;;;;;5029338;28;20223;-80
2022/09/19 00:54:29;;;;;;;7.07;1.60;;;11.90;99.90;;;;;;5033384;28;20163;-80
2022/09/19 00:56:57;;;;;;;9.98;1.40;;;11.90;99.90;;;;;;5016196;28;20273;-80
2022/09/19 00:59:27;;;;;;;1.55;1.38;;;12.00;99.90;;;;;;5033752;28;20179;-80
2022/09/19 01:01:54;;;;;;;5.78;1.27;;;12.10;99.90;;;;;;5034018;28;20167;-80
2022/09/19 01:04:23;;;;;;;7.95;1.38;;;12.10;99.90;;;;;;5015836;28;20172;-82
2022/09/19 01:07:04;;;;;;;10.43;1.55;;;12.20;99.90;;;;;;5016590;28;20271;-80
2022/09/19 01:09:45;;;;;;;7.18;1.80;;;12.00;99.90;;;;;;5033476;28;20631;-80
2022/09/19 01:12:33;;;;;;;4.15;1.70;;;11.80;99.90;;;;;;5032949;28;20286;-80
2022/09/19 01:15:12;;;;;;;2.70;1.40;;;11.70;99.90;;;;;;5033641;28;20261;-80
2022/09/19 01:17:52;;;;;;;6.32;2.00;;;11.60;99.90;;;;;;5016366;28;20770;-80
2022/09/19 01:20:36;;;;;;;8.25;2.38;;;11.60;99.90;;;;;;5017279;28;20168;-81
2022/09/19 01:23:26;;;;;;;4.53;1.80;;;11.60;99.90;;;;;;5034274;28;20156;-81
2022/09/19 01:25:54;;;;;;;7.00;1.60;;;11.90;99.90;;;;;;5057198;28;20218;-80
2022/09/19 01:28:27;;;;;;;2.42;1.50;;;12.10;99.90;;;;;;5058625;28;20239;-80
2022/09/19 01:31:27;;;;;;;4.30;1.70;;;12.10;99.90;;;;;;5058309;28;20154;-81
2022/09/19 01:34:17;;;;;;;4.90;1.45;;;12.00;99.90;;;;;;5013605;28;20192;-80
2022/09/19 01:36:46;;;;;;;10.85;2.30;;;12.00;99.90;;;;;;5058040;28;20222;-81
2022/09/19 01:39:17;;;;;;;4.30;1.50;;;12.10;99.90;;;;;;5040522;28;20148;-81
2022/09/19 01:41:50;;;;;;;4.30;1.50;;;12.20;99.90;;;;;;5055089;28;20184;-82
2022/09/19 01:44:18;;;;;;;10.93;1.50;;;12.10;99.90;;;;;;5044090;28;20191;-84
2022/09/19 01:47:13;;;;;;;2.20;1.27;;;12.00;99.90;;;;;;5044816;28;20192;-86
2022/09/19 01:50:01;;;;;;;4.60;1.38;;;12.00;99.90;;;;;;5047521;28;20160;-84
2022/09/19 01:52:48;;;;;;;15.80;1.40;;;12.00;99.90;;;;;;5045133;28;20741;-81
2022/09/19 01:55:26;;;;;;;6.38;1.30;;;11.90;99.90;;;;;;5023958;28;20191;-84
2022/09/19 01:58:15;;;;;;;10.20;1.42;;;11.70;99.90;;;;;;5026163;28;20190;-81
2022/09/19 02:01:04;;;;;;;3.42;1.35;;;11.60;99.90;;;;;;5035548;28;20571;-80
2022/09/19 02:03:46;;;;;;;5.43;1.27;;;11.70;99.90;;;;;;5016239;28;20193;-84
2022/09/19 02:06:49;;;;;;;3.80;1.80;;;11.80;99.90;;;;;;5036840;28;20191;-84
2022/09/19 02:09:25;;;;;;;8.60;1.27;;;11.80;99.90;;;;;;4979383;28;20187;-82
2022/09/19 02:11:52;;;;;;;4.97;1.30;;;11.80;99.90;;;;;;5019075;28;20265;-81
2022/09/19 02:14:21;;;;;;;10.32;1.45;;;11.90;99.90;;;;;;5038417;28;20170;-81
2022/09/19 02:17:03;;;;;;;3.53;1.15;;;11.90;99.90;;;;;;5036575;28;20178;-85
2022/09/19 02:19:41;;;;;;;5.78;1.20;;;11.90;99.90;;;;;;5018666;28;20625;-81
2022/09/19 02:22:12;;;;;;;5.07;1.05;;;12.00;99.90;;;;;;5019439;28;20171;-83
2022/09/19 02:24:42;;;;;;;3.70;0.90;;;11.90;99.90;;;;;;5048209;28;20309;-80
2022/09/19 02:27:15;;;;;;;3.95;1.27;;;11.70;99.90;;;;;;5048179;28;20182;-80
2022/09/19 02:29:46;;;;;;;2.28;1.40;;;11.50;99.90;;;;;;5032493;28;20247;-81
2022/09/19 02:32:12;;;;;;;4.55;1.15;;;11.60;99.90;;;;;;5050121;28;20203;-81
2022/09/19 02:34:38;;;;;;;6.95;1.40;;;11.60;99.90;;;;;;5038356;28;20254;-80
2022/09/19 02:37:07;;;;;;;2.50;1.20;;;11.60;99.90;;;;;;5054589;28;20180;-81
2022/09/19 02:39:55;;;;;;;4.60;1.35;;;11.60;99.90;;;;;;5051262;28;20218;-80
2022/09/19 02:42:23;;;;;;;7.60;1.35;;;11.50;99.90;;;;;;5055525;28;20230;-79
2022/09/19 02:45:07;;;;;;;9.35;1.52;;;11.50;99.90;;;;;;5037883;28;20265;-81
2022/09/19 02:47:37;;;;;;;8.93;1.65;;;11.60;99.90;;;;;;5051687;28;20159;-80
2022/09/19 02:50:14;;;;;;;12.07;1.25;;;11.60;99.90;;;;;;5031667;28;20203;-81
2022/09/19 02:52:43;;;;;;;6.05;1.40;;;11.60;99.90;;;;;;5033074;28;20241;-80
2022/09/19 02:55:16;;;;;;;3.67;1.90;;;11.60;99.90;;;;;;5051065;28;20184;-81
2022/09/19 02:57:46;;;;;;;6.05;1.35;;;11.60;99.90;;;;;;5051094;28;20164;-81
2022/09/19 03:00:13;;;;;;;13.70;1.38;;;11.70;99.90;;;;;;5054849;28;20191;-80
2022/09/19 03:02:56;;;;;;;6.00;1.23;;;11.60;99.90;;;;;;5049628;28;20172;-81
2022/09/19 03:05:25;;;;;;;6.50;1.58;;;11.50;99.90;;;;;;5054811;28;20187;-80
2022/09/19 03:07:59;;;;;;;5.93;1.27;;;11.40;99.90;;;;;;5019461;28;20175;-84
2022/09/19 03:10:31;;;;;;;7.30;1.35;;;11.60;99.90;;;;;;5018315;28;20633;-82
2022/09/19 03:13:00;;;;;;;13.00;1.23;;;11.60;99.90;;;;;;5035756;28;20685;-86
2022/09/19 03:15:36;;;;;;;10.00;1.33;;;11.50;99.90;;;;;;5035478;28;20551;-80
2022/09/19 03:18:05;;;;;;;8.57;1.38;;;11.50;99.90;;;;;;5035634;28;20163;-81
2022/09/19 03:20:36;;;;;;;2.90;1.38;;;11.50;99.90;;;;;;5018111;28;20255;-82
2022/09/19 03:23:03;;;;;;;8.43;1.27;;;11.60;99.90;;;;;;5035409;28;20163;-84
2022/09/19 03:25:29;;;;;;;11.75;1.40;;;11.60;99.90;;;;;;5035105;28;20184;-82
2022/09/19 03:27:55;;;;;;;10.05;1.40;;;11.50;99.90;;;;;;5017482;28;20203;-85
2022/09/19 03:30:21;;;;;;;5.22;1.42;;;11.50;99.90;;;;;;5017425;28;20164;-83
2022/09/19 03:32:47;;;;;;;6.80;1.27;;;11.50;99.90;;;;;;5035402;28;20233;-85
2022/09/19 03:35:14;;;;;;;7.05;1.48;;;11.50;99.90;;;;;;5035094;28;20179;-81
2022/09/19 03:37:40;;;;;;;9.75;1.52;;;11.60;99.90;;;;;;5017565;28;20171;-81
2022/09/19 03:40:06;;;;;;;6.93;1.65;;;11.50;99.90;;;;;;5017353;28;20168;-82
2022/09/19 03:42:34;;;;;;;10.68;1.25;;;11.70;99.90;;;;;;5017251;28;20210;-86
2022/09/19 03:45:00;;;;;;;13.40;1.70;;;11.50;99.90;;;;;;5016977;28;20199;-83
2022/09/19 03:47:27;;;;;;;8.05;1.90;;;11.50;99.90;;;;;;5017296;28;20218;-81
2022/09/19 03:49:52;;;;;;;4.93;1.65;;;11.40;99.90;;;;;;5034709;28;20206;-85
2022/09/19 03:52:21;;;;;;;4.78;1.50;;;11.30;99.90;;;;;;5034902;28;20215;-83
2022/09/19 03:54:46;;;;;;;4.53;1.65;;;11.30;99.90;;;;;;5016809;28;20548;-84
2022/09/19 03:57:14;;;;;;;4.90;1.40;;;11.30;99.90;;;;;;5034751;28;20183;-84
2022/09/19 03:59:42;;;;;;;10.43;1.52;;;11.10;99.90;;;;;;5034474;28;20168;-84
2022/09/19 04:02:09;;;;;;;11.43;2.10;;;11.30;99.90;;;;;;5034663;28;20178;-85
2022/09/19 04:04:36;;;;;;;10.23;1.73;;;11.30;99.90;;;;;;5017091;28;20177;-83
2022/09/19 04:07:02;;;;;;;3.85;1.60;;;11.30;99.90;;;;;;5016881;28;20184;-82
2022/09/19 04:09:28;;;;;;;9.23;2.38;;;11.50;99.90;;;;;;5016968;28;20171;-81
2022/09/19 04:11:56;;;;;;;5.80;1.80;;;11.30;99.90;;;;;;5034924;28;20203;-80
2022/09/19 04:14:22;;;;;;;5.95;1.90;;;11.30;99.90;;;;;;5016532;28;20579;-82
2022/09/19 04:16:48;;;;;;;7.72;2.08;;;11.40;99.90;;;;;;5017183;28;20168;-82
2022/09/19 04:19:15;;;;;;;8.18;1.73;;;11.40;99.90;;;;;;5017123;28;20210;-83
2022/09/19 04:21:41;;;;;;;3.35;1.95;;;11.30;99.90;;;;;;5019339;28;20191;-81
2022/09/19 04:24:11;;;;;;;5.30;2.00;;;11.50;99.90;;;;;;5051184;28;20179;-80
2022/09/19 04:26:37;;;;;;;7.57;1.60;;;11.60;99.90;;;;;;5031307;28;20206;-81
2022/09/19 04:29:03;;;;;;;13.25;2.22;;;11.60;99.90;;;;;;5048615;28;20635;-80
2022/09/19 04:31:39;;;;;;;15.07;1.33;;;11.50;99.90;;;;;;5048611;28;20188;-80
2022/09/19 04:34:13;;;;;;;8.38;1.55;;;11.50;99.90;;;;;;5044169;28;20162;-81
2022/09/19 04:36:39;;;;;;;6.40;1.58;;;11.50;99.90;;;;;;5037535;28;20190;-86
2022/09/19 04:39:06;;;;;;;11.52;2.05;;;11.50;99.90;;;;;;5033969;28;20585;-83
2022/09/19 04:41:36;;;;;;;6.00;1.63;;;11.40;99.90;;;;;;5034039;28;20221;-80
2022/09/19 04:44:03;;;;;;;10.80;2.08;;;11.40;99.90;;;;;;5034267;28;20176;-81
2022/09/19 04:46:31;;;;;;;8.18;1.58;;;11.30;99.90;;;;;;5033893;28;20232;-81
2022/09/19 04:48:57;;;;;;;9.57;1.50;;;11.30;99.90;;;;;;5034433;28;20172;-86
2022/09/19 04:51:24;;;;;;;7.13;1.63;;;11.20;99.90;;;;;;5016083;28;20579;-85
2022/09/19 04:53:50;;;;;;;5.63;1.77;;;11.00;99.90;;;;;;5016342;28;20164;-86
2022/09/19 04:56:17;;;;;;;7.22;1.48;;;11.00;99.90;;;;;;5033782;28;20199;-85
2022/09/19 04:58:44;;;;;;;3.65;1.65;;;11.00;99.90;;;;;;5016044;28;20191;-83
2022/09/19 05:01:10;;;;;;;14.10;1.92;;;11.00;99.90;;;;;;5033476;28;20176;-82
2022/09/19 05:03:37;;;;;;;10.38;2.22;;;10.90;99.90;;;;;;5033711;28;20230;-84
2022/09/19 05:06:05;;;;;;;6.45;1.75;;;10.90;99.90;;;;;;5033678;28;20278;-85
2022/09/19 05:08:33;;;;;;;4.57;1.42;;;10.90;99.90;;;;;;5045696;28;20206;-79
2022/09/19 05:11:01;;;;;;;6.55;1.70;;;10.90;99.90;;;;;;5046503;28;20223;-80
2022/09/19 05:13:32;;;;;;;14.45;1.42;;;10.80;99.90;;;;;;5022435;28;20657;-80
2022/09/19 05:16:00;;;;;;;6.68;1.80;;;10.80;99.90;;;;;;5046678;28;20294;-81
2022/09/19 05:18:27;;;;;;;4.38;1.70;;;10.70;99.90;;;;;;5049097;28;20223;-80
2022/09/19 05:20:54;;;;;;;6.88;1.60;;;10.80;99.90;;;;;;5033615;28;20171;-80
2022/09/19 05:23:23;;;;;;;8.40;1.70;;;11.00;99.90;;;;;;5039091;28;20642;-82
2022/09/19 05:25:52;;;;;;;8.60;2.10;;;10.80;99.90;;;;;;5032497;28;20649;-80
2022/09/19 05:28:21;;;;;;;2.67;1.38;;;10.90;99.90;;;;;;4996224;28;20630;-82
2022/09/19 05:30:49;;;;;;;2.90;1.70;;;11.00;99.90;;;;;;5013004;28;20664;-81
2022/09/19 05:33:26;;;;;;;4.72;1.67;;;11.10;99.90;;;;;;5012697;28;20208;-83
2022/09/19 05:35:53;;;;;;;11.70;1.58;;;11.00;99.90;;;;;;4994875;28;20192;-81
2022/09/19 05:38:19;;;;;;;8.88;1.80;;;11.00;99.90;;;;;;4995055;28;20220;-81
2022/09/19 05:40:45;;;;;;;3.03;1.88;;;10.90;99.90;;;;;;5013104;28;20631;-82
2022/09/19 05:43:10;;;;;;;13.00;2.42;;;11.00;99.90;;;;;;4995435;28;20180;-83
2022/09/19 05:45:37;;;;;;;10.38;2.72;;;11.10;99.90;;;;;;4994922;28;20545;-82
2022/09/19 05:48:05;;;;;;;8.85;2.03;;;11.00;99.90;;;;;;4994980;28;20183;-82
2022/09/19 05:50:32;;;;;;;4.78;1.98;;;11.10;99.90;;;;;;4994992;28;20251;-82
2022/09/19 05:55:42;;;;;;;8.55;2.28;;;11.30;99.90;;;;;;5016484;28;20290;-83
2022/09/19 05:58:09;;;;;;;18.25;2.38;;;11.40;99.90;;;;;;5018935;28;20160;-86
2022/09/19 06:00:37;;;;;;;11.02;1.90;;;11.30;99.90;;;;;;4998987;28;20514;-81
2022/09/19 06:03:04;;;;;;;7.10;2.17;;;11.50;99.90;;;;;;5027318;28;20178;-81
2022/09/19 06:05:37;;;;;;;9.48;2.00;;;11.50;99.90;;;;;;5036553;28;20191;-82
2022/09/19 06:08:04;;;;;;;13.75;2.72;;;11.50;99.90;;;;;;5024043;28;20287;-81
2022/09/19 06:10:34;;;;;;;15.38;2.55;;;11.60;99.90;;;;;;5022183;28;20172;-82
2022/09/19 06:13:00;;;;;;;8.88;2.50;;;11.70;99.90;;;;;;5034383;28;20211;-82
2022/09/19 06:15:26;;;;;;;7.35;2.38;;;12.00;99.90;;;;;;5017038;28;20211;-82
2022/09/19 06:17:56;;;;;;;4.35;2.40;;;12.20;99.90;;;;;;5015497;28;20179;-82
2022/09/19 06:20:22;;;;;;;8.90;2.90;;;12.40;99.90;;;;;;5015386;28;20164;-83
2022/09/19 06:22:47;;;;;;;11.95;1.70;;;12.60;99.90;;;;;;5015971;28;20263;-83
2022/09/19 06:25:13;;;;;;;6.45;2.00;;;12.90;99.90;;;;;;5033281;28;20195;-82
2022/09/19 06:27:42;;;;;;;14.10;1.85;;;13.00;99.90;;;;;;5034157;28;20184;-84
2022/09/19 06:30:08;;;;;;;13.65;1.77;;;13.10;99.90;;;;;;5015391;28;20182;-84
2022/09/19 06:32:36;;;;;;;6.75;1.88;;;13.10;99.90;;;;;;5016893;28;20204;-82
2022/09/19 06:35:02;;;;;;;4.03;1.85;;;13.10;99.90;;;;;;5032475;28;20184;-83
2022/09/19 06:37:28;;;;;;;13.18;2.42;;;13.10;99.90;;;;;;5012618;28;20180;-85
2022/09/19 06:39:53;;;;;;;12.70;1.90;;;12.90;99.90;;;;;;4995970;28;20251;-85
2022/09/19 06:42:19;;;;;;;7.60;2.22;;;12.80;99.90;;;;;;4995655;28;20222;-84
2022/09/19 07:53:51;;;;;;;13.70;2.20;;;11.80;99.90;;;;;;5107466;27;20599;-79
2022/09/19 07:56:16;;;;;;;6.95;1.90;;;14.50;99.90;;;;;;5108917;28;20226;-80
2022/09/19 07:58:42;;;;;;;13.32;2.50;;;14.80;99.90;;;;;;5109653;28;20161;-82
2022/09/19 08:01:08;;;;;;;2.95;1.90;;;15.20;99.90;;;;;;5108573;28;20161;-81
2022/09/19 08:03:33;;;;;;;9.18;1.65;;;15.50;99.90;;;;;;5109553;28;20193;-81
2022/09/19 08:06:01;;;;;;;9.57;2.50;;;15.70;99.90;;;;;;5110044;28;20162;-81
2022/09/19 08:08:27;;;;;;;11.65;1.73;;;15.80;99.90;;;;;;5109911;28;20175;-80
2022/09/19 08:11:00;;;;;;;7.55;1.85;;;16.00;99.90;;;;;;5109723;28;20162;-78
2022/09/19 08:13:27;;;;;;;8.77;2.70;;;16.00;99.90;;;;;;5109579;28;20220;-78
2022/09/19 08:15:52;;;;;;;5.85;1.83;;;15.90;99.90;;;;;;5109956;28;20157;-77
2022/09/19 08:18:20;;;;;;;10.73;2.03;;;15.70;99.90;;;;;;5110119;28;20177;-81
2022/09/19 08:20:48;;;;;;;7.88;1.50;;;15.70;99.90;;;;;;5108364;28;20169;-81
2022/09/19 08:23:16;;;;;;;16.13;1.88;;;15.70;99.90;;;;;;5109609;28;20292;-81
2022/09/19 08:25:46;;;;;;;11.00;4.53;;;15.50;99.90;;;;;;5108056;28;20169;-81
2022/09/19 08:28:13;;;;;;;13.48;7.53;;;15.50;99.90;;;;;;5107965;28;20180;-82
2022/09/19 08:30:42;;;;;;;9.70;4.55;;;15.50;99.90;;;;;;5109497;28;20515;-80
2022/09/19 08:33:08;;;;;;;8.15;3.35;;;15.70;99.90;;;;;;5108271;28;20213;-85
2022/09/19 08:35:37;;;;;;;7.90;1.92;;;15.80;99.90;;;;;;5108330;28;20210;-84
2022/09/19 08:38:04;;;;;;;4.53;1.88;;;15.90;99.90;;;;;;5108320;28;20175;-83
2022/09/19 08:40:59;;;;;;;18.85;2.08;;;16.20;99.90;;;;;;5109232;28;20541;-83
2022/09/19 08:43:50;;;;;;;6.57;2.17;;;16.20;99.90;;;;;;5107374;28;20197;-83
2022/09/19 08:46:27;;;;;;;2.70;1.90;;;16.20;99.90;;;;;;5108137;28;20166;-83
2022/09/19 08:49:27;;;;;;;5.65;1.75;;;16.30;99.90;;;;;;5109430;28;20176;-84
2022/09/19 08:51:59;;;;;;;5.45;1.63;;;16.50;99.90;;;;;;5107712;28;20216;-83
2022/09/19 08:54:32;;;;;;;10.55;2.08;;;16.60;99.90;;;;;;5096223;28;20192;-83
2022/09/19 08:56:59;;;;;;;13.23;1.98;;;16.70;99.90;;;;;;5094337;28;20530;-85
2022/09/19 08:59:30;;;;;;;5.38;1.80;;;16.80;99.90;;;;;;5094846;28;20168;-85
2022/09/19 09:02:05;;;;;;;6.57;1.88;;;17.00;99.90;;;;;;5094160;28;20170;-82
2022/09/19 09:04:31;;;;;;;13.70;1.80;;;17.00;99.90;;;;;;5094342;28;20194;-82
2022/09/19 09:07:09;;;;;;;10.30;2.50;;;17.10;99.90;;;;;;5095442;28;20159;-83
2022/09/19 09:10:11;;;;;;;9.68;1.77;;;17.20;99.90;;;;;;5095350;28;20193;-82
2022/09/19 09:12:49;;;;;;;11.70;1.75;;;17.00;99.90;;;;;;5095584;28;20682;-84
2022/09/19 09:15:44;;;;;;;5.88;1.80;;;17.40;99.90;;;;;;5095006;28;20314;-83
2022/09/19 09:18:18;;;;;;;9.70;1.85;;;17.40;99.90;;;;;;5093718;28;20181;-81
2022/09/19 09:21:23;;;;;;;9.20;2.25;;;17.50;99.90;;;;;;5093642;28;20173;-82
2022/09/19 09:23:56;;;;;;;11.95;2.28;;;17.50;99.90;;;;;;5092243;28;20248;-83
2022/09/19 09:26:27;;;;;;;38.78;2.65;;;17.50;99.90;;;;;;5093822;28;20170;-82
2022/09/19 09:28:59;;;;;;;14.85;0.93;;;17.60;99.90;;;;;;5093452;28;20162;-83
2022/09/19 09:31:34;;;;;;;4.40;1.48;;;17.60;99.90;;;;;;5093551;28;20648;-82
2022/09/19 09:34:29;;;;;;;6.78;1.92;;;17.60;99.90;;;;;;5094851;28;20185;-83
2022/09/19 09:37:12;;;;;;;15.70;2.60;;;17.90;99.90;;;;;;5090543;28;20181;-83
2022/09/19 09:40:09;;;;;;;12.50;2.40;;;18.40;99.90;;;;;;5093606;28;20354;-83
2022/09/19 09:43:02;;;;;;;15.85;2.00;;;18.50;99.90;;;;;;5094724;28;20162;-82
2022/09/19 09:45:45;;;;;;;14.45;1.60;;;18.60;99.90;;;;;;5093180;28;20619;-82
2022/09/19 09:48:26;;;;;;;3.90;1.02;;;18.80;99.90;;;;;;5093100;28;20260;-82
2022/09/19 09:51:11;;;;;;;3.08;1.38;;;19.00;99.90;;;;;;5093984;28;20166;-82
2022/09/19 09:53:49;;;;;;;13.00;1.67;;;19.30;99.90;;;;;;5093143;28;20213;-82
2022/09/19 09:56:45;;;;;;;9.40;1.60;;;19.30;99.90;;;;;;5093352;28;20170;-83
2022/09/19 10:05:36;;;;;;;7.45;2.03;;;18.80;99.90;;;;;;5092948;28;20539;-78
2022/09/19 10:08:29;;;;;;;3.35;1.00;;;18.70;99.90;;;;;;5092615;28;20264;-79
2022/09/19 10:11:25;;;;;;;9.02;2.00;;;18.70;99.90;;;;;;5093968;28;20170;-79
2022/09/19 10:14:08;;;;;;;6.95;1.73;;;18.80;99.90;;;;;;5094230;28;20190;-79
2022/09/19 10:16:34;;;;;;;9.00;1.52;;;18.50;99.90;;;;;;5093821;28;20253;-79
2022/09/19 10:19:11;;;;;;;8.63;1.40;;;18.30;99.90;;;;;;5094020;28;20619;-79
2022/09/19 10:21:38;;;;;;;16.83;1.60;;;18.60;99.90;;;;;;5093899;28;20630;-80
2022/09/19 10:24:41;;;;;;;15.63;1.85;;;18.70;99.90;;;;;;5093747;28;20185;-80
2022/09/19 10:27:38;;;;;;;10.45;1.85;;;18.90;99.90;;;;;;5093599;28;20153;-79
2022/09/19 10:30:15;;;;;;;12.00;1.67;;;19.20;99.90;;;;;;5093451;28;20158;-80
2022/09/19 10:32:43;;;;;;;7.85;1.67;;;19.10;99.90;;;;;;5093204;28;20239;-79
2022/09/19 10:35:32;;;;;;;11.13;1.52;;;19.00;99.90;;;;;;5093347;28;20208;-80
2022/09/19 10:38:05;;;;;;;6.20;1.13;;;18.80;99.90;;;;;;5093442;28;20649;-79
2022/09/19 10:40:31;;;;;;;6.43;1.85;;;18.50;99.90;;;;;;5093240;28;20546;-78
2022/09/19 10:42:58;;;;;;;11.20;1.35;;;18.70;99.90;;;;;;5092738;28;20178;-79
2022/09/19 10:45:34;;;;;;;13.77;3.65;;;18.70;99.90;;;;;;5091938;28;20473;-79
2022/09/19 10:48:20;;;;;;;5.00;1.48;;;18.60;99.90;;;;;;5093323;28;20166;-79
2022/09/19 10:50:50;;;;;;;15.13;2.50;;;18.50;99.90;;;;;;5092863;28;20215;-79
2022/09/19 10:53:22;;;;;;;12.68;3.53;;;17.90;99.90;;;;;;5092911;28;20227;-79
2022/09/19 10:55:48;;;;;;;14.43;2.00;;;18.00;99.90;;;;;;5093476;28;20215;-78
2022/09/19 10:58:26;;;;;;;6.88;1.35;;;17.90;99.90;;;;;;5093396;28;20536;-78
2022/09/19 11:01:01;;;;;;;4.43;1.23;;;17.80;99.90;;;;;;5093052;28;20518;-78
2022/09/19 11:03:39;;;;;;;7.63;1.38;;;17.60;99.90;;;;;;5092723;28;20177;-79
2022/09/19 11:06:16;;;;;;;11.05;5.05;;;17.70;99.90;;;;;;5093564;28;20696;-79
2022/09/19 11:08:51;;;;;;;17.70;5.38;;;17.80;99.90;;;;;;5096079;28;20212;-79
2022/09/19 11:11:49;;;;;;;5.40;1.33;;;18.00;99.90;;;;;;5097901;28;20252;-79
2022/09/19 11:14:31;;;;;;;11.88;1.40;;;17.90;99.90;;;;;;5093147;28;20670;-79
2022/09/19 11:17:15;;;;;;;7.03;1.27;;;17.60;99.90;;;;;;5092588;28;20193;-78
2022/09/19 11:20:05;;;;;;;2.72;1.02;;;17.60;99.90;;;;;;5092476;28;20170;-78
2022/09/19 11:22:37;;;;;;;2.20;1.00;;;17.50;99.90;;;;;;5092683;28;20223;-78
2022/09/19 11:25:37;;;;;;;7.50;1.20;;;17.40;99.90;;;;;;5092761;28;20197;-79
2022/09/19 11:28:24;;;;;;;7.22;1.67;;;17.40;99.90;;;;;;5092174;28;20201;-78
2022/09/19 11:30:55;;;;;;;5.65;1.50;;;17.40;99.90;;;;;;5092409;28;20249;-78
2022/09/19 11:33:43;;;;;;;3.17;1.10;;;17.30;99.90;;;;;;5092416;28;20741;-78
2022/09/19 11:36:25;;;;;;;6.05;3.10;;;17.30;99.90;;;;;;5091222;28;20630;-79
2022/09/19 11:38:55;;;;;;;6.78;1.70;;;17.10;99.90;;;;;;5091743;28;20165;-78
2022/09/19 11:41:35;;;;;;;6.30;1.20;;;17.20;99.90;;;;;;5092596;28;20193;-79
2022/09/19 11:44:32;;;;;;;8.77;1.75;;;17.10;99.90;;;;;;5092140;28;20714;-78
2022/09/19 11:47:14;;;;;;;11.35;1.10;;;17.10;99.90;;;;;;5092070;28;20172;-78
2022/09/19 11:49:59;;;;;;;3.40;1.00;;;16.90;99.90;;;;;;5092543;28;20679;-81
2022/09/19 11:52:33;;;;;;;6.65;1.30;;;16.80;99.90;;;;;;5091984;28;20284;-79
2022/09/19 11:55:27;;;;;;;4.45;1.13;;;16.90;99.90;;;;;;5090858;28;20189;-79
2022/09/19 11:58:07;;;;;;;7.57;1.00;;;17.00;99.90;;;;;;5092336;28;20218;-78
2022/09/19 12:00:52;;;;;;;13.05;1.23;;;17.10;99.90;;;;;;5092655;28;20177;-78
2022/09/19 12:03:52;;;;;;;8.73;2.13;;;17.50;99.90;;;;;;5092345;28;20634;-78
2022/09/19 12:06:33;;;;;;;7.30;0.80;;;17.90;99.90;;;;;;5093035;28;20184;-79
2022/09/19 12:09:30;;;;;;;7.32;0.93;;;18.30;99.90;;;;;;5092924;28;20169;-78
2022/09/19 12:12:11;;;;;;;10.38;0.95;;;18.10;99.90;;;;;;5093729;28;20205;-79
2022/09/19 12:15:06;;;;;;;8.55;1.23;;;18.10;99.90;;;;;;5091650;28;20196;-81
2022/09/19 12:17:42;;;;;;;5.57;1.25;;;18.50;99.90;;;;;;5092446;28;20219;-79
2022/09/19 12:20:23;;;;;;;9.40;1.63;;;18.20;99.90;;;;;;5093009;28;20249;-81
2022/09/19 12:22:57;;;;;;;6.40;1.20;;;18.00;99.90;;;;;;5092936;28;20177;-78
2022/09/19 12:25:30;;;;;;;3.80;1.08;;;17.80;99.90;;;;;;5091960;28;20170;-78
2022/09/19 12:28:10;;;;;;;2.90;1.08;;;17.50;99.90;;;;;;5092789;28;20180;-79
2022/09/19 12:30:41;;;;;;;7.00;1.67;;;17.60;99.90;;;;;;5096494;28;20193;-78
2022/09/19 12:33:31;;;;;;;6.43;1.33;;;17.60;99.90;;;;;;5096465;28;20297;-78
2022/09/19 12:36:15;;;;;;;11.13;1.05;;;17.30;99.90;;;;;;5097122;28;20161;-78
2022/09/19 12:38:56;;;;;;;10.18;0.98;;;17.60;99.90;;;;;;5096706;28;20221;-80
2022/09/19 12:41:43;;;;;;;3.00;0.70;;;17.70;99.90;;;;;;5089367;28;20204;-94
2022/09/19 12:44:13;;;;;;;6.22;1.08;;;17.60;99.90;;;;;;5075110;28;20267;-82
2022/09/19 12:46:44;;;;;;;8.93;1.10;;;17.70;99.90;;;;;;5073995;28;20170;-85
2022/09/19 12:49:16;;;;;;;7.03;1.17;;;17.60;99.90;;;;;;5076588;28;20253;-78
2022/09/19 12:52:04;;;;;;;7.80;1.20;;;17.70;99.90;;;;;;5085575;28;20276;-79
2022/09/19 12:54:37;;;;;;;6.95;1.02;;;17.80;99.90;;;;;;5099023;28;20211;-79
2022/09/19 12:57:38;;;;;;;1.40;0.47;;;17.70;99.90;;;;;;5100875;28;20193;-79
2022/09/19 13:00:06;;;;;;;5.80;0.80;;;17.30;99.90;;;;;;5096520;28;20185;-79
2022/09/19 13:02:56;;;;;;;1.10;0.60;;;17.20;99.90;;;;;;5091237;28;20167;-79
2022/09/19 13:05:33;;;;;;;2.83;0.80;;;17.10;99.90;;;;;;5077996;28;20185;-79
2022/09/19 13:08:04;;;;;;;1.40;0.80;;;17.10;99.90;;;;;;5077908;28;20166;-79
2022/09/19 13:10:41;;;;;;;7.03;0.95;;;17.30;99.90;;;;;;5076524;28;20178;-80
2022/09/19 13:13:13;;;;;;;11.30;1.10;;;17.40;99.90;;;;;;5076132;28;20281;-80
2022/09/19 13:15:50;;;;;;;2.90;0.73;;;17.50;99.90;;;;;;5077254;28;20167;-80
2022/09/19 13:23:57;;;;;;;6.15;1.00;;;17.90;99.90;;;;;;5082689;28;20220;-79
2022/09/19 13:26:35;;;;;;;8.32;0.75;;;18.10;99.90;;;;;;5078979;28;20182;-81
2022/09/19 13:29:04;;;;;;;3.97;1.10;;;18.20;99.90;;;;;;5078341;28;20174;-79
2022/09/19 13:31:58;;;;;;;5.72;1.77;;;18.10;99.90;;;;;;5080276;28;20198;-78
2022/09/19 13:35:01;;;;;;;4.90;0.80;;;18.20;99.90;;;;;;5080758;28;20217;-78
2022/09/19 13:37:26;;;;;;;9.38;0.90;;;18.10;99.90;;;;;;5084766;28;20194;-78
2022/09/19 13:40:27;;;;;;;11.23;0.85;;;17.70;99.90;;;;;;5080444;28;20184;-77
2022/09/19 13:43:11;;;;;;;2.45;0.80;;;17.90;99.90;;;;;;5079455;28;20158;-79
2022/09/19 13:46:10;;;;;;;9.70;0.90;;;18.00;99.90;;;;;;5081088;28;20209;-83
2022/09/19 13:48:43;;;;;;;2.17;0.90;;;18.10;99.90;;;;;;5079464;28;20183;-78
2022/09/19 13:51:11;;;;;;;8.48;0.85;;;18.10;99.90;;;;;;5092056;28;20178;-79
2022/09/19 13:53:43;;;;;;;3.42;0.82;;;18.20;99.90;;;;;;5077420;28;20222;-84
2022/09/19 13:56:24;;;;;;;3.20;1.23;;;18.10;99.90;;;;;;5071919;28;20560;-80
2022/09/19 13:59:46;;;;;;;5.25;1.05;;;18.20;99.90;;;;;;5075565;28;20227;-90
2022/09/19 14:02:12;;;;;;;8.13;1.13;;;17.90;99.90;;;;;;5051789;28;20179;-81
2022/09/19 14:04:52;;;;;;;9.93;0.88;;;17.80;99.90;;;;;;5051682;28;20199;-92
2022/09/19 14:07:43;;;;;;;3.85;1.10;;;17.90;99.90;;;;;;5055313;28;20189;-79
2022/09/19 14:10:47;;;;;;;6.30;0.85;;;17.80;99.90;;;;;;5043708;28;20277;-81
2022/09/19 14:13:26;;;;;;;7.07;1.23;;;17.80;99.90;;;;;;5019950;28;20233;-80
2022/09/19 14:16:07;;;;;;;4.05;1.00;;;17.90;99.90;;;;;;5077614;28;20189;-79
2022/09/19 14:18:54;;;;;;;13.15;1.10;;;17.80;99.90;;;;;;5077036;28;20151;-79
2022/09/19 14:21:25;;;;;;;4.00;0.80;;;17.60;99.90;;;;;;5082319;28;20178;-79
2022/09/19 14:24:01;;;;;;;6.32;0.90;;;17.60;99.90;;;;;;5076909;28;20190;-79
2022/09/19 14:26:42;;;;;;;5.28;1.30;;;17.50;99.90;;;;;;5081457;28;20178;-78
2022/09/19 14:29:43;;;;;;;4.07;0.90;;;17.50;99.90;;;;;;5080756;28;20178;-79
2022/09/19 14:32:41;;;;;;;4.38;0.60;;;17.50;99.90;;;;;;5078471;28;20627;-77
2022/09/19 14:35:45;;;;;;;3.55;0.77;;;17.30;99.90;;;;;;5073202;28;20594;-84
2022/09/19 14:38:18;;;;;;;3.30;0.80;;;17.20;99.90;;;;;;5073305;28;20245;-78
2022/09/19 14:41:04;;;;;;;1.55;0.70;;;17.20;99.90;;;;;;5074855;28;20307;-86
2022/09/19 14:44:08;;;;;;;1.67;0.80;;;17.00;99.90;;;;;;5072815;28;20216;-79
2022/09/19 14:46:53;;;;;;;4.65;0.90;;;17.00;99.90;;;;;;5070886;28;20197;-78
2022/09/19 14:49:35;;;;;;;1.98;0.75;;;17.20;99.90;;;;;;5077569;28;20891;-78
2022/09/19 14:52:15;;;;;;;6.18;1.27;;;17.10;99.90;;;;;;5075156;28;20198;-78